Time;durP1;ratioP1;P1;durP2;ratioP2;P2;SDS_P1;SDS_P2;PMS_P1;PMS_P2;Temp;Humidity;BMP_temperature;BMP_pressure;BME280_temperature;BME280_humidity;BME280_pressure;Samples;Min_cycle;Max_cycle;Signal;HPM_P1;HPM_P2
2021/10/17 05:40:16;;;;;;;18.53;6.93;;;7.70;99.90;;;;;;4484895;31;20198;-66
2021/10/17 05:42:42;;;;;;;18.80;7.80;;;7.70;99.90;;;;;;4468028;32;20129;-66
2021/10/17 05:45:10;;;;;;;18.83;7.60;;;7.70;99.90;;;;;;4469405;32;20129;-67
2021/10/17 05:47:38;;;;;;;16.80;6.83;;;7.80;99.90;;;;;;4469259;32;20524;-67
2021/10/17 05:50:06;;;;;;;16.63;7.53;;;7.80;99.90;;;;;;4469022;32;20126;-66
2021/10/17 05:52:33;;;;;;;17.23;7.43;;;7.90;99.90;;;;;;4469554;32;20174;-66
2021/10/17 05:55:00;;;;;;;15.47;7.37;;;7.90;99.90;;;;;;4468309;32;20398;-66
2021/10/17 05:57:27;;;;;;;14.17;6.83;;;8.00;99.90;;;;;;4469590;32;20283;-67
2021/10/17 05:59:53;;;;;;;18.43;6.83;;;8.10;99.90;;;;;;4467470;32;20145;-66
2021/10/17 06:02:20;;;;;;;16.83;7.07;;;8.10;99.90;;;;;;4467394;32;20579;-66
2021/10/17 06:04:47;;;;;;;15.33;6.83;;;8.10;99.90;;;;;;4461976;32;20504;-67
2021/10/17 06:07:14;;;;;;;16.30;7.17;;;8.20;99.90;;;;;;4457489;32;20187;-66
2021/10/17 06:09:41;;;;;;;15.93;7.23;;;8.30;99.90;;;;;;4452345;32;20203;-66
2021/10/17 06:12:08;;;;;;;14.83;7.07;;;8.20;99.90;;;;;;4451378;32;20180;-66
2021/10/17 06:14:35;;;;;;;15.33;6.33;;;8.20;99.90;;;;;;4453500;32;20470;-66
2021/10/17 06:17:02;;;;;;;14.10;6.73;;;8.20;99.90;;;;;;4453219;32;20538;-66
2021/10/17 06:19:30;;;;;;;15.93;7.10;;;8.20;99.90;;;;;;4453414;32;20520;-66
2021/10/17 06:21:57;;;;;;;16.23;6.87;;;8.20;99.90;;;;;;4451664;32;20530;-66
2021/10/17 06:24:24;;;;;;;13.53;6.60;;;8.30;99.90;;;;;;4452714;32;20118;-67
2021/10/17 06:26:51;;;;;;;14.43;7.07;;;8.30;99.90;;;;;;4451548;32;20127;-68
2021/10/17 06:29:17;;;;;;;14.97;7.10;;;8.30;99.90;;;;;;4451369;32;20443;-67
2021/10/17 06:31:44;;;;;;;13.87;6.47;;;8.30;99.90;;;;;;4451289;32;20131;-67
2021/10/17 06:34:11;;;;;;;13.73;7.00;;;8.30;99.90;;;;;;4453245;32;20134;-67
2021/10/17 06:36:39;;;;;;;14.03;6.77;;;8.30;99.90;;;;;;4451433;32;20490;-66
2021/10/17 06:39:06;;;;;;;12.73;6.40;;;8.40;99.90;;;;;;4451125;32;20170;-68
2021/10/17 06:41:33;;;;;;;17.30;7.00;;;8.40;99.90;;;;;;4452288;32;20175;-66
2021/10/17 06:44:00;;;;;;;17.87;7.10;;;8.40;99.90;;;;;;4452706;32;20393;-65
2021/10/17 06:46:27;;;;;;;15.30;6.63;;;8.40;99.90;;;;;;4455029;32;20178;-66
2021/10/17 06:48:54;;;;;;;14.20;6.40;;;8.50;99.90;;;;;;4451046;32;20148;-65
2021/10/17 06:51:21;;;;;;;13.47;6.30;;;8.50;99.90;;;;;;4443565;32;20431;-66
2021/10/17 06:53:48;;;;;;;14.43;5.97;;;8.60;99.90;;;;;;4441976;32;20213;-66
2021/10/17 06:56:14;;;;;;;14.10;6.20;;;8.60;99.90;;;;;;4442814;32;20445;-66
2021/10/17 06:58:41;;;;;;;14.67;6.10;;;8.70;99.90;;;;;;4442521;32;20154;-66
2021/10/17 07:01:08;;;;;;;13.60;6.27;;;8.70;99.90;;;;;;4442524;32;20238;-65
2021/10/17 07:03:38;;;;;;;13.23;5.90;;;8.70;99.90;;;;;;4442049;32;20434;-64
2021/10/17 07:06:08;;;;;;;14.90;6.50;;;8.80;99.90;;;;;;4440690;32;20169;-64
2021/10/17 07:08:35;;;;;;;11.63;5.93;;;8.80;99.90;;;;;;4440391;32;20177;-63
2021/10/17 07:11:01;;;;;;;14.37;6.50;;;8.90;99.90;;;;;;4442318;32;20138;-64
2021/10/17 07:13:28;;;;;;;14.90;6.10;;;9.00;99.90;;;;;;4440516;32;20433;-64
2021/10/17 07:15:55;;;;;;;12.20;5.90;;;9.00;99.90;;;;;;4442135;32;20183;-65
2021/10/17 07:18:22;;;;;;;15.80;6.07;;;8.90;99.90;;;;;;4448990;32;20191;-64
2021/10/17 07:20:52;;;;;;;14.73;6.40;;;9.00;99.90;;;;;;4442406;32;20163;-65
2021/10/17 07:23:20;;;;;;;13.87;5.90;;;9.10;99.90;;;;;;4442372;32;20478;-64
2021/10/17 07:25:47;;;;;;;13.20;6.03;;;9.20;99.90;;;;;;4440568;32;20154;-64
2021/10/17 07:28:14;;;;;;;14.63;6.13;;;9.30;99.90;;;;;;4440216;32;20391;-64
2021/10/17 07:30:41;;;;;;;14.93;6.00;;;9.20;99.90;;;;;;4440517;32;20127;-65
2021/10/17 07:33:08;;;;;;;16.00;5.57;;;9.20;99.90;;;;;;4440443;32;20234;-64
2021/10/17 07:35:35;;;;;;;11.93;5.53;;;9.20;99.90;;;;;;4441698;32;20127;-63
2021/10/17 07:38:02;;;;;;;13.63;5.83;;;9.30;99.90;;;;;;4440694;32;20340;-64
2021/10/17 07:40:29;;;;;;;13.90;6.03;;;9.30;99.90;;;;;;4441881;32;20135;-64
2021/10/17 07:42:55;;;;;;;10.40;5.30;;;9.30;99.90;;;;;;4441996;32;20180;-65
2021/10/17 08:54:46;;;;;;;12.50;5.60;;;9.50;99.90;;;;;;4484486;31;20282;-63
2021/10/17 08:57:13;;;;;;;12.23;5.27;;;9.50;99.90;;;;;;4469528;32;20126;-63
2021/10/17 08:59:47;;;;;;;10.43;5.37;;;9.50;99.90;;;;;;4463685;32;20194;-63
2021/10/17 09:02:19;;;;;;;15.10;5.93;;;9.60;99.90;;;;;;4455272;32;20196;-65
2021/10/17 09:05:01;;;;;;;13.90;5.90;;;9.70;99.90;;;;;;4452937;32;20127;-64
2021/10/17 09:07:28;;;;;;;12.80;5.40;;;9.60;99.90;;;;;;4452325;32;20456;-63
2021/10/17 09:10:12;;;;;;;10.73;5.70;;;9.70;99.90;;;;;;4451926;32;20158;-63
2021/10/17 09:12:41;;;;;;;12.20;5.37;;;9.70;99.90;;;;;;4453630;32;20135;-63
2021/10/17 09:15:21;;;;;;;13.80;5.47;;;9.70;99.90;;;;;;4453865;32;20127;-63
2021/10/17 09:18:12;;;;;;;11.80;5.70;;;9.60;99.90;;;;;;4451878;32;20210;-65
2021/10/17 09:20:48;;;;;;;11.00;5.83;;;9.60;99.90;;;;;;4451763;32;20123;-63
2021/10/17 09:23:21;;;;;;;10.43;5.47;;;9.60;99.90;;;;;;4452670;32;20515;-66
2021/10/17 09:25:50;;;;;;;15.60;5.73;;;9.70;99.90;;;;;;4451759;32;20122;-64
2021/10/17 09:28:23;;;;;;;15.93;6.13;;;9.70;99.90;;;;;;4453040;32;20194;-64
2021/10/17 09:30:57;;;;;;;10.80;5.83;;;9.70;99.90;;;;;;4453251;32;20131;-64
2021/10/17 09:33:40;;;;;;;12.10;5.90;;;9.70;99.90;;;;;;4451760;32;20511;-64
2021/10/17 09:36:21;;;;;;;14.87;6.77;;;9.70;99.90;;;;;;4453313;32;20126;-63
2021/10/17 09:38:51;;;;;;;15.03;6.30;;;9.60;99.90;;;;;;4452356;32;20191;-65
2021/10/17 09:41:21;;;;;;;17.40;6.83;;;9.70;99.90;;;;;;4453204;32;20126;-63
2021/10/17 09:43:56;;;;;;;13.50;6.13;;;9.70;99.90;;;;;;4451352;32;20185;-65
2021/10/17 09:46:24;;;;;;;13.03;6.33;;;9.80;99.90;;;;;;4451316;32;20197;-63
2021/10/17 09:48:51;;;;;;;16.17;6.90;;;9.70;99.90;;;;;;4454822;32;20160;-64
2021/10/17 09:51:28;;;;;;;15.33;6.37;;;9.80;99.90;;;;;;4458102;32;20146;-63
2021/10/17 09:53:58;;;;;;;15.63;6.50;;;9.80;99.90;;;;;;4450799;32;20619;-63
2021/10/17 09:56:44;;;;;;;15.07;7.23;;;9.80;99.90;;;;;;4451224;32;20211;-64
2021/10/17 09:59:13;;;;;;;13.77;6.60;;;9.80;99.90;;;;;;4453101;32;20133;-64
